Time;durP1;ratioP1;P1;durP2;ratioP2;P2;SDS_P1;SDS_P2;PMS_P1;PMS_P2;Temp;Humidity;BMP_temperature;BMP_pressure;BME280_temperature;BME280_humidity;BME280_pressure;Samples;Min_cycle;Max_cycle;Signal;HPM_P1;HPM_P2
2021/12/05 00:22:18;;;;;;;44.83;15.27;;;19.90;63.00;;;;;;4480893;32;20143;-79
2021/12/05 00:24:48;;;;;;;43.40;14.90;;;19.80;62.90;;;;;;4480255;31;20219;-78
2021/12/05 00:27:18;;;;;;;43.10;13.10;;;19.80;62.90;;;;;;4479595;32;20598;-79
2021/12/05 00:30:00;;;;;;;44.00;14.73;;;19.80;62.90;;;;;;4480856;32;20140;-78
2021/12/05 00:32:35;;;;;;;40.83;13.65;;;19.80;63.00;;;;;;4479080;32;20181;-79
2021/12/05 00:38:57;;;;;;;36.22;12.48;;;19.80;63.00;;;;;;4480397;32;20100;-78
2021/12/05 00:57:21;;;;;;;34.13;11.30;;;19.60;63.00;;;;;;4470642;32;20137;-78
2021/12/05 01:02:37;;;;;;;35.90;12.18;;;19.60;63.00;;;;;;4466714;32;20139;-78
2021/12/05 01:10:58;;;;;;;36.25;11.85;;;19.50;63.10;;;;;;4478487;32;20141;-78
2021/12/05 01:15:56;;;;;;;26.63;10.75;;;19.60;63.10;;;;;;4479244;32;20692;-78
2021/12/05 01:18:22;;;;;;;32.55;10.88;;;19.60;64.00;;;;;;4479854;32;20246;-78
2021/12/05 01:20:55;;;;;;;32.38;11.23;;;19.50;63.10;;;;;;4480210;32;20082;-78
2021/12/05 01:23:34;;;;;;;24.38;10.25;;;19.50;63.10;;;;;;4478831;32;20144;-78
2021/12/05 01:26:07;;;;;;;29.70;10.40;;;19.50;63.10;;;;;;4481849;32;20199;-79
2021/12/05 01:28:54;;;;;;;30.00;10.50;;;19.50;63.10;;;;;;4494294;31;20144;-79
2021/12/05 01:33:58;;;;;;;27.23;9.95;;;19.50;63.10;;;;;;4483586;32;20622;-79
2021/12/05 01:36:50;;;;;;;23.30;9.88;;;19.40;63.00;;;;;;4481512;32;20153;-79
2021/12/05 01:47:47;;;;;;;24.42;10.18;;;19.40;63.10;;;;;;4482723;32;20579;-78
2021/12/05 01:53:09;;;;;;;25.30;9.30;;;19.40;63.20;;;;;;4482468;32;20191;-79
2021/12/05 01:58:57;;;;;;;22.92;9.05;;;19.30;63.10;;;;;;4481052;32;20199;-78
2021/12/05 02:31:18;;;;;;;24.83;8.20;;;19.20;64.10;;;;;;4480957;32;20264;-79
2021/12/05 02:39:47;;;;;;;22.92;8.07;;;19.20;63.30;;;;;;4498511;31;20124;-78
2021/12/05 02:41:42;;;;;;;20.48;7.90;;;19.20;63.30;;;;;;4494181;31;20297;-78
2021/12/05 02:44:28;;;;;;;18.45;7.05;;;19.20;63.30;;;;;;4496931;31;20198;-79
2021/12/05 02:47:04;;;;;;;18.73;7.85;;;19.10;63.20;;;;;;4497850;31;20190;-79
2021/12/05 02:49:34;;;;;;;18.98;7.13;;;19.10;63.20;;;;;;4495738;31;20151;-78
2021/12/05 02:52:05;;;;;;;17.20;6.70;;;19.10;63.20;;;;;;4497229;31;20140;-79
2021/12/05 02:54:38;;;;;;;22.05;7.50;;;19.10;63.30;;;;;;4496808;31;20125;-79
2021/12/05 02:57:05;;;;;;;18.70;6.88;;;19.10;63.30;;;;;;4496840;31;20147;-80
2021/12/05 03:02:05;;;;;;;19.05;7.10;;;19.10;63.30;;;;;;4495988;31;20501;-78
2021/12/05 03:04:33;;;;;;;16.13;6.63;;;19.00;63.30;;;;;;4498198;31;20193;-79
2021/12/05 03:07:04;;;;;;;20.67;7.43;;;19.00;63.20;;;;;;4496269;31;20145;-78
2021/12/05 03:09:30;;;;;;;14.50;6.57;;;19.00;63.20;;;;;;4496604;31;20178;-78
2021/12/05 03:11:56;;;;;;;18.73;6.88;;;19.00;63.30;;;;;;4509582;31;20664;-78
2021/12/05 03:14:22;;;;;;;13.55;6.15;;;19.00;63.30;;;;;;4495993;31;20124;-78
2021/12/05 03:16:53;;;;;;;13.43;6.20;;;19.00;63.30;;;;;;4497945;31;20443;-79
2021/12/05 03:19:20;;;;;;;16.15;6.15;;;19.00;63.30;;;;;;4494422;31;20237;-78
2021/12/05 03:21:49;;;;;;;13.68;5.85;;;19.00;63.30;;;;;;4497861;31;20278;-80
2021/12/05 03:24:17;;;;;;;15.88;5.63;;;19.00;63.30;;;;;;4508155;31;20143;-79
2021/12/05 03:26:47;;;;;;;16.88;6.40;;;19.00;63.30;;;;;;4496983;31;20151;-79
2021/12/05 03:29:15;;;;;;;14.80;6.10;;;19.00;63.30;;;;;;4497027;31;20175;-79
2021/12/05 03:31:41;;;;;;;14.50;5.50;;;19.00;63.30;;;;;;4495797;31;20625;-78
2021/12/05 03:34:09;;;;;;;13.65;5.88;;;18.90;63.30;;;;;;4496280;31;20190;-79
2021/12/05 03:36:40;;;;;;;13.50;6.20;;;18.90;63.30;;;;;;4503270;31;20270;-79
2021/12/05 03:39:08;;;;;;;13.63;6.13;;;18.90;63.30;;;;;;4483149;31;20133;-78
2021/12/05 03:41:36;;;;;;;14.25;5.78;;;18.90;63.30;;;;;;4479842;31;20148;-78
2021/12/05 03:44:03;;;;;;;17.15;5.32;;;18.90;63.30;;;;;;4492187;31;20141;-78
2021/12/05 03:46:30;;;;;;;15.18;6.18;;;18.90;63.30;;;;;;4481192;31;20218;-78
2021/12/05 03:49:02;;;;;;;12.02;5.65;;;18.90;63.20;;;;;;4478780;32;20155;-78
2021/12/05 03:51:31;;;;;;;13.60;6.05;;;18.90;63.30;;;;;;4479959;31;20125;-78
2021/12/05 03:53:57;;;;;;;12.00;5.50;;;18.90;63.30;;;;;;4490929;31;20125;-78
2021/12/05 03:56:23;;;;;;;13.27;5.13;;;18.90;63.30;;;;;;4492528;31;20140;-79
2021/12/05 03:58:51;;;;;;;14.27;6.32;;;18.90;63.30;;;;;;4479821;31;20133;-78
2021/12/05 04:01:18;;;;;;;11.50;5.05;;;18.80;63.30;;;;;;4480017;31;20214;-78
2021/12/05 04:03:46;;;;;;;11.38;5.07;;;18.80;63.20;;;;;;4479769;31;20206;-78
2021/12/05 04:06:15;;;;;;;13.35;5.35;;;18.80;63.20;;;;;;4478394;31;20101;-78
2021/12/05 04:08:41;;;;;;;12.00;5.57;;;18.80;63.20;;;;;;4489006;31;20742;-79
2021/12/05 04:11:14;;;;;;;12.85;4.75;;;18.80;63.30;;;;;;4491981;31;20239;-79
2021/12/05 04:13:44;;;;;;;12.45;5.68;;;18.80;63.30;;;;;;4479674;31;20139;-79
2021/12/05 04:16:10;;;;;;;10.50;4.68;;;18.80;63.30;;;;;;4478216;31;20132;-78
2021/12/05 04:18:37;;;;;;;10.93;4.88;;;18.80;63.30;;;;;;4492605;31;20121;-78
2021/12/05 04:21:06;;;;;;;11.80;4.85;;;18.80;63.30;;;;;;4478885;31;20159;-79
2021/12/05 04:23:32;;;;;;;13.88;5.22;;;18.80;63.30;;;;;;4477428;31;20124;-78
2021/12/05 04:25:59;;;;;;;11.55;5.03;;;18.70;63.30;;;;;;4478712;32;20335;-79
2021/12/05 04:28:25;;;;;;;9.40;4.25;;;18.70;63.30;;;;;;4476587;31;20302;-78
2021/12/05 04:30:51;;;;;;;14.05;4.80;;;18.70;63.20;;;;;;4479432;31;20137;-78
2021/12/05 04:33:17;;;;;;;11.73;4.88;;;18.70;63.20;;;;;;4479076;32;20137;-78
2021/12/05 04:35:43;;;;;;;11.25;4.82;;;18.70;63.30;;;;;;4480121;31;20113;-79
2021/12/05 04:38:09;;;;;;;10.40;4.30;;;18.70;63.30;;;;;;4478536;32;20234;-78
2021/12/05 04:40:35;;;;;;;9.48;4.95;;;18.70;63.30;;;;;;4476493;31;20151;-78
2021/12/05 04:43:03;;;;;;;10.32;4.10;;;18.70;63.30;;;;;;4479670;32;20113;-79
2021/12/05 04:45:32;;;;;;;9.93;4.20;;;18.70;63.30;;;;;;4489610;31;20149;-79
2021/12/05 04:47:59;;;;;;;10.82;4.43;;;18.70;63.30;;;;;;4478114;32;20141;-78
2021/12/05 04:50:25;;;;;;;10.40;4.40;;;18.70;63.30;;;;;;4491320;31;20164;-78
2021/12/05 04:52:52;;;;;;;9.68;4.22;;;18.70;63.30;;;;;;4479653;31;20135;-79
2021/12/05 04:55:19;;;;;;;9.90;4.78;;;18.70;63.30;;;;;;4478339;32;20274;-79
2021/12/05 04:57:46;;;;;;;8.65;3.45;;;18.70;63.30;;;;;;4477465;32;20286;-78
2021/12/05 05:00:18;;;;;;;10.35;3.80;;;18.70;63.30;;;;;;4493518;31;20144;-78
2021/12/05 05:02:44;;;;;;;9.85;4.40;;;18.60;63.30;;;;;;4482701;31;20146;-78
2021/12/05 05:05:10;;;;;;;9.05;3.67;;;18.60;63.30;;;;;;4483908;31;20129;-79
2021/12/05 05:07:39;;;;;;;9.82;3.92;;;18.60;63.30;;;;;;4486607;31;20225;-79
2021/12/05 05:10:09;;;;;;;8.52;3.88;;;18.60;63.30;;;;;;4482514;31;20153;-79
2021/12/05 05:12:35;;;;;;;9.85;3.90;;;18.60;63.30;;;;;;4485296;31;20124;-78
2021/12/05 05:15:03;;;;;;;9.38;3.53;;;18.60;63.30;;;;;;4495195;31;20190;-78
2021/12/05 05:17:29;;;;;;;9.07;3.63;;;18.60;63.40;;;;;;4497592;31;20125;-78
2021/12/05 05:20:00;;;;;;;8.02;3.80;;;18.60;63.40;;;;;;4484276;32;20210;-78
2021/12/05 05:28:04;;;;;;;8.60;3.90;;;18.50;63.40;;;;;;4483530;32;20201;-78
2021/12/05 05:49:16;;;;;;;6.20;3.50;;;18.50;63.40;;;;;;4482706;32;20132;-78
2021/12/05 05:51:42;;;;;;;9.07;3.35;;;18.50;63.50;;;;;;4484746;32;20133;-78
2021/12/05 05:54:09;;;;;;;6.22;3.10;;;18.40;63.40;;;;;;4483238;32;20133;-78
2021/12/05 05:56:36;;;;;;;6.53;3.05;;;18.40;63.40;;;;;;4483925;32;20133;-78
2021/12/05 05:59:08;;;;;;;8.32;3.22;;;18.40;63.40;;;;;;4484128;32;20264;-78
2021/12/05 06:04:04;;;;;;;8.55;3.10;;;18.40;63.50;;;;;;4484561;32;20133;-79
2021/12/05 06:06:32;;;;;;;6.88;3.05;;;18.40;63.40;;;;;;4483159;32;20702;-78
2021/12/05 06:08:58;;;;;;;9.25;3.50;;;18.40;63.50;;;;;;4485719;32;20270;-78
2021/12/05 06:11:24;;;;;;;8.00;2.75;;;18.40;63.40;;;;;;4469174;32;20136;-78
2021/12/05 06:13:52;;;;;;;8.43;3.20;;;18.40;63.50;;;;;;4468290;32;20128;-78
2021/12/05 06:16:18;;;;;;;7.10;3.10;;;18.40;63.40;;;;;;4468721;32;20117;-78
2021/12/05 06:18:46;;;;;;;5.78;3.08;;;18.40;63.50;;;;;;4479934;31;20140;-78
2021/12/05 06:21:14;;;;;;;8.35;3.08;;;18.40;63.50;;;;;;4468976;32;20182;-78
2021/12/05 06:23:41;;;;;;;5.57;2.95;;;18.40;63.50;;;;;;4480591;32;20156;-78
2021/12/05 06:26:11;;;;;;;6.90;2.55;;;18.30;63.40;;;;;;4494737;31;20145;-78
2021/12/05 06:28:41;;;;;;;6.13;2.55;;;18.40;63.50;;;;;;4481421;31;20557;-78
2021/12/05 06:31:28;;;;;;;5.93;2.85;;;18.30;63.40;;;;;;4481840;32;20133;-78
2021/12/05 06:39:43;;;;;;;7.38;3.00;;;18.30;63.40;;;;;;4481393;32;20136;-78
2021/12/05 06:47:28;;;;;;;6.97;3.08;;;18.30;63.40;;;;;;4481625;32;20120;-78
2021/12/05 06:49:55;;;;;;;5.57;2.63;;;18.30;63.40;;;;;;4479784;32;20183;-78
2021/12/05 06:52:23;;;;;;;7.60;2.90;;;18.30;63.40;;;;;;4481656;32;20218;-77
2021/12/05 06:54:49;;;;;;;4.80;2.60;;;18.30;63.40;;;;;;4481922;32;20231;-77
2021/12/05 06:57:17;;;;;;;7.15;2.75;;;18.30;63.40;;;;;;4492589;31;20121;-77
2021/12/05 06:59:45;;;;;;;4.85;2.67;;;18.30;63.40;;;;;;4481262;31;20139;-78
2021/12/05 07:02:13;;;;;;;7.22;2.78;;;18.30;63.40;;;;;;4480311;32;20129;-77
2021/12/05 07:07:37;;;;;;;5.10;2.42;;;18.30;63.40;;;;;;4480298;32;20576;-78
2021/12/05 07:10:07;;;;;;;5.78;2.40;;;18.20;63.30;;;;;;4480536;32;20205;-78
2021/12/05 07:15:11;;;;;;;5.85;2.47;;;18.20;63.30;;;;;;4479687;31;20482;-78
2021/12/05 07:25:29;;;;;;;4.82;2.42;;;18.20;63.40;;;;;;4494175;31;20132;-78
2021/12/05 07:41:53;;;;;;;4.57;2.40;;;18.10;63.40;;;;;;4495533;31;20128;-77
2021/12/05 07:44:19;;;;;;;4.03;2.15;;;18.10;63.40;;;;;;4494882;31;20150;-78
2021/12/05 07:46:46;;;;;;;6.78;2.53;;;18.10;63.50;;;;;;4497393;31;20144;-77
2021/12/05 07:49:16;;;;;;;4.65;2.15;;;18.10;63.50;;;;;;4495289;31;20136;-78
2021/12/05 07:51:48;;;;;;;4.53;2.05;;;18.10;63.50;;;;;;4496254;31;20132;-78
2021/12/05 07:55:09;;;;;;;5.63;2.00;;;18.10;63.50;;;;;;4495985;31;20113;-78
2021/12/05 08:16:10;;;;;;;7.90;2.63;;;18.00;63.10;;;;;;4496166;31;20136;-73
2021/12/05 08:18:38;;;;;;;7.07;2.60;;;18.00;62.40;;;;;;4495182;31;20136;-74
2021/12/05 08:21:06;;;;;;;6.55;2.85;;;17.90;61.50;;;;;;4496868;31;20129;-77
2021/12/05 08:23:33;;;;;;;7.95;2.75;;;17.90;60.70;;;;;;4494750;31;20225;-78
2021/12/05 08:26:16;;;;;;;7.75;2.47;;;17.90;60.90;;;;;;4495461;31;20183;-79
2021/12/05 08:31:59;;;;;;;5.97;2.28;;;17.90;61.30;;;;;;4495117;31;20108;-75
2021/12/05 08:40:26;;;;;;;5.05;2.10;;;17.90;61.60;;;;;;4495895;31;20648;-78
2021/12/05 08:45:52;;;;;;;5.97;2.40;;;17.90;61.60;;;;;;4495001;31;20251;-75
2021/12/05 09:24:20;;;;;;;4.70;1.58;;;19.30;59.10;;;;;;4478226;32;20259;-75
2021/12/05 09:50:58;;;;;;;2.80;1.38;;;20.00;57.50;;;;;;4477910;32;21437;-75
2021/12/05 10:02:37;;;;;;;2.72;1.20;;;21.10;55.20;;;;;;4481344;32;20129;-77
2021/12/05 10:26:40;;;;;;;4.97;1.58;;;21.40;54.70;;;;;;4497687;31;20121;-75
2021/12/05 10:38:21;;;;;;;3.03;1.20;;;21.70;54.90;;;;;;4482073;31;20148;-71
2021/12/05 10:41:03;;;;;;;4.95;1.13;;;21.80;53.90;;;;;;4479878;31;20143;-72
2021/12/05 10:43:31;;;;;;;4.70;1.40;;;21.80;53.90;;;;;;4480740;31;20147;-72
2021/12/05 10:46:19;;;;;;;2.95;1.10;;;21.80;53.90;;;;;;4481297;31;20295;-74
2021/12/05 10:48:55;;;;;;;2.58;0.93;;;21.90;53.90;;;;;;4492408;31;20133;-77
2021/12/05 10:51:27;;;;;;;4.45;1.25;;;21.90;54.00;;;;;;4497543;31;20125;-76
2021/12/05 10:53:53;;;;;;;2.95;1.20;;;21.90;54.00;;;;;;4494975;31;20346;-76
2021/12/05 10:56:36;;;;;;;3.83;1.13;;;21.90;54.00;;;;;;4497941;31;20640;-77
2021/12/05 10:59:12;;;;;;;3.45;1.55;;;22.00;54.00;;;;;;4497088;31;20089;-82
2021/12/05 11:01:57;;;;;;;2.90;1.15;;;22.00;53.80;;;;;;4495974;31;20133;-77
2021/12/05 11:04:33;;;;;;;5.07;1.58;;;22.10;53.60;;;;;;4498008;31;20113;-78
2021/12/05 11:07:06;;;;;;;3.42;1.30;;;22.20;53.50;;;;;;4496767;31;20132;-76
2021/12/05 11:09:40;;;;;;;1.75;1.00;;;22.20;53.30;;;;;;4497187;31;20120;-77
2021/12/05 11:12:24;;;;;;;2.75;1.35;;;22.20;53.10;;;;;;4489641;31;20157;-77
2021/12/05 11:14:57;;;;;;;3.50;1.23;;;22.30;53.00;;;;;;4479447;31;20214;-78
2021/12/05 11:17:28;;;;;;;2.83;1.38;;;22.40;52.90;;;;;;4481293;31;20195;-75
2021/12/05 11:20:01;;;;;;;2.50;1.20;;;22.40;52.90;;;;;;4486845;31;20160;-77
2021/12/05 11:22:33;;;;;;;4.65;1.08;;;22.30;52.90;;;;;;4493669;31;20129;-74
2021/12/05 11:25:13;;;;;;;3.80;1.20;;;22.30;53.10;;;;;;4494813;31;20136;-79
2021/12/05 11:27:43;;;;;;;2.38;1.00;;;22.30;53.20;;;;;;4490113;31;20152;-77
2021/12/05 11:30:31;;;;;;;2.05;0.93;;;22.40;53.20;;;;;;4490134;31;20128;-78
2021/12/05 11:33:06;;;;;;;2.80;1.40;;;22.40;53.20;;;;;;4489870;31;20159;-78
2021/12/05 11:35:34;;;;;;;2.42;1.20;;;22.40;53.00;;;;;;4486974;31;20183;-73
2021/12/05 11:38:21;;;;;;;2.08;1.15;;;22.50;52.90;;;;;;4481279;31;20208;-79
2021/12/05 11:41:07;;;;;;;4.20;1.20;;;22.50;52.80;;;;;;4490697;31;20212;-75
2021/12/05 11:43:33;;;;;;;3.55;1.20;;;22.50;52.80;;;;;;4496036;31;20225;-74
2021/12/05 11:46:14;;;;;;;2.33;1.15;;;22.40;52.90;;;;;;4495213;31;20128;-74
2021/12/05 11:48:52;;;;;;;3.45;1.05;;;22.30;53.80;;;;;;4494656;31;20137;-73
2021/12/05 11:51:36;;;;;;;2.63;1.27;;;22.30;53.20;;;;;;4496581;31;20125;-72
2021/12/05 11:54:09;;;;;;;2.10;1.20;;;22.20;53.40;;;;;;4481973;31;20129;-74
2021/12/05 11:56:34;;;;;;;2.35;0.95;;;22.10;53.60;;;;;;4480210;31;20296;-74
2021/12/05 11:59:06;;;;;;;3.72;0.93;;;22.00;53.80;;;;;;4480672;31;20081;-74
2021/12/05 12:02:07;;;;;;;2.17;0.90;;;21.90;54.00;;;;;;4477753;31;20186;-74
2021/12/05 12:04:51;;;;;;;5.10;1.15;;;21.90;54.30;;;;;;4468032;32;20129;-75
2021/12/05 12:07:36;;;;;;;2.40;1.13;;;21.80;54.40;;;;;;4483424;31;20202;-73
2021/12/05 12:10:10;;;;;;;3.47;1.30;;;21.70;54.50;;;;;;4481176;31;20265;-74
2021/12/05 12:12:38;;;;;;;2.25;1.00;;;21.70;54.80;;;;;;4481765;31;20215;-72
2021/12/05 12:15:05;;;;;;;4.70;1.25;;;21.70;55.00;;;;;;4481053;31;20149;-75
2021/12/05 12:17:31;;;;;;;2.90;1.27;;;21.60;55.10;;;;;;4481091;31;20151;-73
2021/12/05 12:19:58;;;;;;;1.23;0.90;;;21.60;55.10;;;;;;4494120;31;20128;-74
2021/12/05 12:22:26;;;;;;;1.77;1.20;;;21.60;55.20;;;;;;4469288;31;20217;-74
2021/12/05 12:24:59;;;;;;;2.92;0.90;;;21.60;55.10;;;;;;4483407;31;20140;-73
2021/12/05 12:27:25;;;;;;;4.03;1.10;;;21.60;55.20;;;;;;4478969;31;20586;-73
2021/12/05 12:29:55;;;;;;;2.70;1.20;;;21.60;55.30;;;;;;4479561;31;20259;-75
2021/12/05 12:32:27;;;;;;;2.45;1.27;;;21.60;55.30;;;;;;4478235;31;20145;-74
2021/12/05 12:35:07;;;;;;;1.70;1.10;;;21.60;55.30;;;;;;4480173;31;20133;-73
2021/12/05 12:38:03;;;;;;;2.35;1.05;;;21.60;55.30;;;;;;4480133;32;20140;-75
2021/12/05 12:40:33;;;;;;;2.20;0.90;;;21.60;55.40;;;;;;4476853;32;20143;-76
2021/12/05 12:42:59;;;;;;;3.13;1.27;;;21.60;55.20;;;;;;4493060;31;20141;-83
2021/12/05 12:45:25;;;;;;;2.15;1.10;;;21.60;55.40;;;;;;4478655;31;20136;-80
2021/12/05 12:47:54;;;;;;;1.65;1.00;;;21.60;55.40;;;;;;4479963;31;20172;-80
2021/12/05 12:50:36;;;;;;;4.72;1.30;;;21.60;55.40;;;;;;4481978;31;20096;-77
2021/12/05 12:53:05;;;;;;;4.35;1.55;;;21.60;55.40;;;;;;4478214;32;20676;-73
2021/12/05 12:55:34;;;;;;;3.40;1.10;;;21.60;55.40;;;;;;4478971;31;20203;-72
2021/12/05 12:58:05;;;;;;;6.40;1.20;;;21.60;55.50;;;;;;4477987;31;20133;-74
2021/12/05 13:00:34;;;;;;;2.88;1.10;;;21.60;55.50;;;;;;4479778;32;20206;-72
2021/12/05 13:03:12;;;;;;;4.47;1.10;;;21.50;55.70;;;;;;4481746;32;20129;-74
2021/12/05 13:07:19;;;;;;;5.72;1.38;;;21.60;55.80;;;;;;4479596;32;20150;-72
2021/12/05 13:11:52;;;;;;;5.97;1.30;;;21.50;55.60;;;;;;4480515;32;20132;-76
2021/12/05 13:14:19;;;;;;;9.65;1.38;;;21.50;55.70;;;;;;4478569;32;20141;-74
2021/12/05 13:16:46;;;;;;;3.78;0.95;;;21.50;55.70;;;;;;4480942;32;20129;-75
2021/12/05 13:19:22;;;;;;;4.97;1.00;;;21.50;55.90;;;;;;4478558;32;20136;-75
2021/12/05 13:21:52;;;;;;;3.95;1.02;;;21.50;55.90;;;;;;4480630;32;20482;-74
2021/12/05 13:24:19;;;;;;;3.65;1.25;;;21.60;56.00;;;;;;4483122;32;20234;-82
2021/12/05 13:26:45;;;;;;;4.50;1.73;;;21.60;55.90;;;;;;4482360;32;20144;-75
2021/12/05 13:29:25;;;;;;;5.15;1.17;;;21.60;55.90;;;;;;4483465;31;20113;-72
2021/12/05 13:32:10;;;;;;;4.55;1.45;;;21.50;55.90;;;;;;4482119;31;20168;-73
2021/12/05 13:35:23;;;;;;;6.07;1.45;;;21.50;55.90;;;;;;4483467;32;20113;-74
2021/12/05 13:37:49;;;;;;;3.47;1.63;;;21.60;55.90;;;;;;4481794;32;20125;-73
2021/12/05 13:40:22;;;;;;;5.95;1.73;;;21.60;55.80;;;;;;4481141;32;20132;-73
2021/12/05 13:43:03;;;;;;;5.53;1.58;;;21.50;55.80;;;;;;4483781;32;20283;-73
2021/12/05 13:45:31;;;;;;;4.20;1.38;;;21.50;55.90;;;;;;4481961;32;20141;-72
2021/12/05 13:48:00;;;;;;;7.63;1.83;;;21.50;55.90;;;;;;4482753;32;20139;-72
2021/12/05 13:50:33;;;;;;;4.20;2.00;;;21.50;55.60;;;;;;4483206;32;20101;-73
2021/12/05 13:53:02;;;;;;;6.20;2.00;;;21.50;55.30;;;;;;4481406;32;20330;-73
2021/12/05 13:55:50;;;;;;;9.23;2.00;;;21.40;55.40;;;;;;4483239;32;20266;-73
2021/12/05 13:58:31;;;;;;;9.35;1.88;;;21.40;55.80;;;;;;4481746;32;20133;-73
2021/12/05 14:01:23;;;;;;;7.03;2.00;;;21.30;56.00;;;;;;4481878;31;20135;-73
2021/12/05 14:04:00;;;;;;;9.38;1.50;;;21.30;56.30;;;;;;4482430;32;20206;-74
2021/12/05 14:06:35;;;;;;;5.72;1.67;;;21.30;57.30;;;;;;4480501;31;20121;-73
2021/12/05 14:09:12;;;;;;;5.50;1.50;;;21.30;56.60;;;;;;4481295;31;20286;-70
2021/12/05 14:11:42;;;;;;;8.60;1.60;;;21.30;56.70;;;;;;4481736;31;20207;-74
2021/12/05 14:14:09;;;;;;;7.00;1.77;;;21.20;56.70;;;;;;4482202;31;20121;-72
2021/12/05 14:16:41;;;;;;;5.38;1.90;;;21.30;56.80;;;;;;4492615;31;20121;-70
2021/12/05 14:19:11;;;;;;;2.50;1.13;;;21.30;56.90;;;;;;4487700;31;20132;-70
2021/12/05 14:21:45;;;;;;;2.90;1.40;;;21.30;56.80;;;;;;4489199;31;20151;-69
2021/12/05 14:24:12;;;;;;;5.10;1.50;;;21.30;56.80;;;;;;4473198;31;20133;-77
2021/12/05 14:26:40;;;;;;;3.47;1.50;;;21.30;56.80;;;;;;4496497;31;20440;-70
2021/12/05 14:29:19;;;;;;;3.50;1.67;;;21.30;56.80;;;;;;4482616;31;20129;-70
2021/12/05 14:32:22;;;;;;;8.05;2.40;;;21.30;56.80;;;;;;4488388;31;20137;-69
2021/12/05 14:34:51;;;;;;;6.35;1.83;;;21.30;56.90;;;;;;4486834;31;20132;-70
2021/12/05 14:37:20;;;;;;;4.75;1.73;;;21.30;56.90;;;;;;4491396;31;20279;-70
2021/12/05 14:39:49;;;;;;;4.47;1.88;;;21.30;56.90;;;;;;4488929;31;20116;-69
2021/12/05 14:42:18;;;;;;;2.95;1.60;;;21.20;56.80;;;;;;4491236;31;21013;-69
2021/12/05 14:44:48;;;;;;;5.90;1.92;;;21.30;57.00;;;;;;4495285;31;20139;-71
2021/12/05 14:47:18;;;;;;;2.85;1.73;;;21.20;56.80;;;;;;4496734;31;20132;-70
2021/12/05 14:49:47;;;;;;;4.65;1.88;;;21.30;56.90;;;;;;4496051;31;20667;-69
2021/12/05 14:52:21;;;;;;;9.07;1.77;;;21.30;56.80;;;;;;4496850;31;20132;-69
2021/12/05 14:54:47;;;;;;;4.00;1.75;;;21.20;56.70;;;;;;4497388;31;20140;-68
2021/12/05 14:57:19;;;;;;;3.92;1.60;;;21.30;56.70;;;;;;4495535;31;20246;-68
2021/12/05 14:59:48;;;;;;;6.35;1.90;;;21.30;56.70;;;;;;4497322;31;20148;-68
2021/12/05 15:02:19;;;;;;;6.47;1.50;;;21.30;56.70;;;;;;4494389;31;20209;-69
2021/12/05 15:04:50;;;;;;;2.88;1.63;;;21.30;56.70;;;;;;4496736;31;20132;-70
2021/12/05 15:07:24;;;;;;;5.15;1.98;;;21.30;56.60;;;;;;4496886;31;20281;-70
2021/12/05 15:09:53;;;;;;;5.65;1.92;;;21.30;56.60;;;;;;4496123;31;20125;-72
2021/12/05 15:12:34;;;;;;;3.65;1.70;;;21.30;56.60;;;;;;4496936;31;20132;-74
2021/12/05 15:15:10;;;;;;;5.57;2.03;;;21.30;56.70;;;;;;4495855;31;20121;-72
2021/12/05 15:17:39;;;;;;;4.88;1.88;;;21.30;56.50;;;;;;4488160;31;20748;-81
2021/12/05 15:20:12;;;;;;;5.57;2.00;;;21.20;56.40;;;;;;4481152;31;20345;-74
2021/12/05 15:22:39;;;;;;;4.40;1.88;;;21.20;56.40;;;;;;4479662;31;20676;-74
2021/12/05 15:25:09;;;;;;;5.20;1.98;;;21.20;56.30;;;;;;4495729;31;20525;-75
2021/12/05 15:27:37;;;;;;;5.05;1.70;;;21.20;56.20;;;;;;4481579;31;20283;-72
2021/12/05 15:30:02;;;;;;;6.15;2.15;;;21.20;56.30;;;;;;4495436;31;20136;-72
2021/12/05 15:32:30;;;;;;;3.60;1.80;;;21.20;56.20;;;;;;4493615;31;20105;-76
2021/12/05 15:35:07;;;;;;;3.83;1.70;;;21.20;56.20;;;;;;4494333;31;20140;-76
2021/12/05 15:37:33;;;;;;;4.30;1.75;;;21.20;56.30;;;;;;4494687;31;20291;-76
2021/12/05 15:40:02;;;;;;;3.30;1.80;;;21.30;56.30;;;;;;4491857;31;20466;-76
2021/12/05 15:42:35;;;;;;;2.72;1.58;;;21.30;56.30;;;;;;4494976;31;20108;-75
2021/12/05 15:45:05;;;;;;;3.63;1.73;;;21.30;56.20;;;;;;4492420;31;20283;-77
2021/12/05 15:47:34;;;;;;;2.40;1.52;;;21.30;56.30;;;;;;4487695;31;20177;-74
2021/12/05 15:50:07;;;;;;;3.28;1.45;;;21.20;56.30;;;;;;4479149;31;20124;-71
2021/12/05 15:52:41;;;;;;;3.25;1.63;;;21.20;56.40;;;;;;4481725;31;20129;-74
2021/12/05 15:55:15;;;;;;;3.70;1.75;;;21.20;56.60;;;;;;4480992;31;20141;-74
2021/12/05 15:57:45;;;;;;;2.92;1.67;;;21.10;56.70;;;;;;4480679;31;20133;-73
2021/12/05 16:00:18;;;;;;;5.78;1.60;;;21.00;56.90;;;;;;4479728;31;20132;-73
2021/12/05 16:02:47;;;;;;;3.35;1.25;;;21.00;56.90;;;;;;4479512;31;20723;-74
2021/12/05 16:05:24;;;;;;;5.38;1.40;;;20.90;57.10;;;;;;4479793;32;20121;-73
2021/12/05 16:07:50;;;;;;;4.45;1.75;;;20.90;57.30;;;;;;4481428;32;20195;-74
2021/12/05 16:10:23;;;;;;;2.95;1.30;;;20.80;57.40;;;;;;4479243;32;20148;-70
2021/12/05 16:12:53;;;;;;;3.13;1.45;;;20.80;57.50;;;;;;4480330;32;20206;-74
2021/12/05 16:15:25;;;;;;;5.80;1.30;;;20.80;57.70;;;;;;4479642;31;20148;-72
2021/12/05 16:17:59;;;;;;;4.35;1.70;;;20.70;57.70;;;;;;4494050;31;20589;-74
2021/12/05 16:20:26;;;;;;;3.47;1.50;;;20.70;57.90;;;;;;4496065;31;20132;-72
2021/12/05 16:23:11;;;;;;;4.18;1.40;;;20.70;57.90;;;;;;4494292;31;20182;-72
2021/12/05 16:25:42;;;;;;;4.93;1.30;;;20.70;58.00;;;;;;4495515;31;20160;-73
2021/12/05 16:28:12;;;;;;;5.10;1.70;;;20.70;58.00;;;;;;4494107;31;20140;-72
2021/12/05 16:30:43;;;;;;;4.13;1.40;;;20.70;58.10;;;;;;4495798;31;20182;-72
2021/12/05 16:33:11;;;;;;;5.05;1.52;;;20.70;58.10;;;;;;4494158;31;20085;-71
2021/12/05 16:35:48;;;;;;;2.00;1.30;;;20.70;58.20;;;;;;4494309;31;20140;-72
2021/12/05 16:38:28;;;;;;;3.33;1.25;;;20.60;58.10;;;;;;4496378;31;20199;-71
2021/12/05 16:41:04;;;;;;;3.08;1.13;;;20.70;58.10;;;;;;4494108;31;20297;-73
2021/12/05 16:43:34;;;;;;;3.83;1.60;;;20.70;58.20;;;;;;4495614;31;20128;-70
2021/12/05 16:46:23;;;;;;;4.57;1.30;;;20.60;58.10;;;;;;4495793;31;20085;-73
2021/12/05 16:48:49;;;;;;;2.53;1.33;;;20.60;58.10;;;;;;4493856;31;20157;-73
2021/12/05 16:51:34;;;;;;;7.00;1.48;;;20.70;58.20;;;;;;4496136;31;20557;-71
2021/12/05 16:54:11;;;;;;;6.18;1.92;;;20.70;58.20;;;;;;4494444;31;20246;-76
2021/12/05 16:56:44;;;;;;;3.00;1.30;;;20.80;57.80;;;;;;4494484;31;20143;-73
2021/12/05 16:59:41;;;;;;;3.65;1.55;;;21.10;57.00;;;;;;4494661;31;20128;-81
2021/12/05 17:02:12;;;;;;;3.92;1.38;;;21.30;56.00;;;;;;4480789;31;20264;-73
2021/12/05 17:05:01;;;;;;;5.47;1.52;;;21.40;55.80;;;;;;4494695;32;20187;-78
2021/12/05 17:07:36;;;;;;;5.45;1.50;;;21.30;55.60;;;;;;4495845;32;20091;-78
2021/12/05 17:10:05;;;;;;;2.22;1.17;;;21.30;55.80;;;;;;4484597;32;20129;-84
2021/12/05 17:12:34;;;;;;;8.70;1.63;;;21.20;55.90;;;;;;4480295;32;20143;-78
2021/12/05 17:15:13;;;;;;;6.95;1.70;;;21.10;56.20;;;;;;4491976;31;20133;-76
2021/12/05 17:17:40;;;;;;;2.80;1.67;;;21.10;56.40;;;;;;4481645;32;20121;-69
2021/12/05 17:20:36;;;;;;;4.57;1.60;;;21.00;56.50;;;;;;4467904;32;20202;-70
2021/12/05 17:23:06;;;;;;;2.88;1.40;;;21.00;56.60;;;;;;4490078;31;20541;-69
2021/12/05 17:25:35;;;;;;;4.90;2.00;;;20.90;56.70;;;;;;4481090;32;20137;-70
2021/12/05 17:28:03;;;;;;;9.77;2.78;;;20.90;56.70;;;;;;4477730;32;20195;-70
2021/12/05 17:30:30;;;;;;;4.35;2.20;;;20.90;56.80;;;;;;4480043;32;20151;-68
2021/12/05 17:32:56;;;;;;;3.95;2.13;;;20.80;56.80;;;;;;4491677;32;20263;-69
2021/12/05 17:35:28;;;;;;;5.22;2.13;;;20.80;56.80;;;;;;4478857;32;20275;-67
2021/12/05 17:37:57;;;;;;;5.20;2.28;;;20.80;56.80;;;;;;4480716;32;20247;-68
2021/12/05 17:40:25;;;;;;;5.40;2.40;;;20.80;56.90;;;;;;4490153;32;20113;-71
2021/12/05 17:42:51;;;;;;;3.63;2.08;;;20.70;56.80;;;;;;4480452;32;20141;-73
2021/12/05 17:45:17;;;;;;;3.13;2.00;;;20.70;56.70;;;;;;4478663;32;20806;-72
2021/12/05 17:47:44;;;;;;;5.50;2.22;;;20.80;56.80;;;;;;4492139;32;20446;-73
2021/12/05 17:50:15;;;;;;;4.32;1.92;;;20.70;56.70;;;;;;4478757;32;20294;-74
2021/12/05 17:52:42;;;;;;;3.70;1.98;;;20.70;56.60;;;;;;4478895;32;20188;-73
2021/12/05 17:55:18;;;;;;;2.67;1.80;;;20.70;56.50;;;;;;4479043;32;20125;-71
2021/12/05 17:57:52;;;;;;;3.03;1.90;;;20.70;56.40;;;;;;4477358;32;20133;-71
2021/12/05 18:02:56;;;;;;;6.00;1.70;;;20.70;56.30;;;;;;4479468;32;20521;-71
2021/12/05 18:05:23;;;;;;;5.05;1.80;;;20.70;56.30;;;;;;4480272;32;20109;-69
2021/12/05 18:07:54;;;;;;;3.15;1.80;;;20.70;56.20;;;;;;4482888;32;20128;-69
2021/12/05 18:10:25;;;;;;;2.85;1.60;;;20.70;56.10;;;;;;4491772;31;20147;-70
2021/12/05 18:12:52;;;;;;;2.63;1.40;;;20.70;56.00;;;;;;4494106;31;20132;-69
2021/12/05 18:15:25;;;;;;;2.20;1.60;;;20.70;56.00;;;;;;4480063;31;20178;-71